Time,TemperatureF,DewpointF,PressureIn,WindDirection,WindDirectionDegrees,WindSpeedMPH,WindSpeedGustMPH,Humidity,HourlyPrecipIn,Conditions,Clouds,dailyrainin,SolarRadiationWatts/m^2,SoftwareType,DateUTC
2013-10-18 00:00:00,74.9,72.1,29.94,NNW,338,0.0,0.0,91,0.00,,---,0.00,0.00,VWS V14.01,2013-10-18 04:00:00,
2013-10-18 01:00:00,74.2,72.1,29.94,East,90,0.0,3.0,93,0.00,,---,0.00,0.00,VWS V14.01,2013-10-18 05:00:00,
2013-10-18 02:00:00,72.6,69.8,29.93,ENE,68,1.0,5.0,91,0.00,,---,0.00,0.00,VWS V14.01,2013-10-18 06:00:00,
2013-10-18 03:00:00,72.0,69.6,29.92,ENE,68,1.0,4.0,92,0.00,,---,0.00,0.00,VWS V14.01,2013-10-18 07:00:00,
2013-10-18 04:00:00,71.8,69.4,29.92,ENE,68,0.0,4.0,92,0.00,,---,0.00,0.00,VWS V14.01,2013-10-18 08:00:00,
2013-10-18 05:00:00,71.1,69.0,29.91,ENE,68,0.0,3.0,93,0.00,,---,0.00,0.00,VWS V14.01,2013-10-18 09:00:00,
2013-10-18 06:00:00,70.1,68.3,29.92,ENE,68,0.0,1.0,94,0.00,,---,0.00,0.00,VWS V14.01,2013-10-18 10:00:00,
2013-10-18 07:00:00,69.7,68.2,29.93,ENE,68,0.0,1.0,95,0.00,,---,0.00,0.00,VWS V14.01,2013-10-18 11:00:00,
2013-10-18 08:00:00,69.7,68.5,29.95,ENE,68,0.0,1.0,96,0.00,,---,0.00,0.00,VWS V14.01,2013-10-18 12:00:00,
2013-10-18 09:00:00,70.1,68.9,29.97,ENE,68,0.0,3.0,96,0.00,,---,0.00,14.00,VWS V14.01,2013-10-18 13:00:00,
2013-10-18 10:00:00,75.2,72.7,29.99,SSE,158,1.0,4.0,92,0.00,,---,0.00,91.00,VWS V14.01,2013-10-18 14:00:00,
2013-10-18 11:00:00,79.9,73.9,29.99,SSE,158,3.0,9.0,82,0.00,,---,0.00,266.00,VWS V14.01,2013-10-18 15:00:00,
2013-10-18 12:00:00,84.6,74.2,29.98,South,180,3.0,8.0,71,0.00,,---,0.00,557.00,VWS V14.01,2013-10-18 16:00:00,
2013-10-18 13:00:00,87.5,73.8,29.97,South,180,4.0,10.0,64,0.00,,---,0.00,730.00,VWS V14.01,2013-10-18 17:00:00,
2013-10-18 14:00:00,85.7,72.1,29.94,South,180,3.0,8.0,64,0.00,,---,0.00,439.00,VWS V14.01,2013-10-18 18:00:00,
2013-10-18 15:00:00,86.4,71.4,29.92,South,180,2.0,11.0,61,0.00,,---,0.00,367.00,VWS V14.01,2013-10-18 19:00:00,
2013-10-18 16:00:00,86.0,71.5,29.90,South,180,2.0,7.0,62,0.00,,---,0.00,209.00,VWS V14.01,2013-10-18 20:00:00,
2013-10-18 17:00:00,83.8,71.7,29.89,SSE,158,0.0,5.0,67,0.00,,---,0.00,113.00,VWS V14.01,2013-10-18 21:00:00,
2013-10-18 18:00:00,82.7,72.3,29.90,SE,135,0.0,4.0,71,0.00,,---,0.00,53.00,VWS V14.01,2013-10-18 22:00:00,
2013-10-18 19:00:00,82.9,74.6,29.90,NW,315,0.0,3.0,76,0.00,,---,0.00,17.00,VWS V14.01,2013-10-18 23:00:00,
2013-10-18 20:00:00,80.2,73.5,29.92,NNW,338,2.0,7.0,80,0.00,,---,0.00,10.00,VWS V14.01,2013-10-19 00:00:00,
2013-10-18 21:00:00,78.1,72.9,29.94,NNW,338,0.0,2.0,84,0.00,,---,0.00,0.00,VWS V14.01,2013-10-19 01:00:00,
2013-10-18 22:00:00,76.0,72.2,29.94,NNW,338,0.0,1.0,88,0.00,,---,0.00,0.00,VWS V14.01,2013-10-19 02:00:00,
2013-10-18 23:00:00,74.7,71.9,29.95,NNW,338,0.0,0.0,91,0.00,,---,0.00,0.00,VWS V14.01,2013-10-19 03:00:00,